createdAt,value
2019-04-29T00:02:08.468Z,28.07
2019-04-29T00:04:35.939Z,28.77
2019-04-29T00:07:03.310Z,24.60
2019-04-29T00:09:31.029Z,25.70
2019-04-29T00:11:58.239Z,23.17
2019-04-29T00:14:25.677Z,23.00
2019-04-29T00:17:08.151Z,23.13
2019-04-29T00:19:36.247Z,20.10
2019-04-29T00:22:03.004Z,19.40
2019-04-29T00:24:30.459Z,26.17
2019-04-29T00:26:57.892Z,26.97
2019-04-29T00:29:25.290Z,24.83
2019-04-29T00:31:52.779Z,29.07
2019-04-29T00:34:20.187Z,36.60
2019-04-29T00:36:53.498Z,32.73
2019-04-29T00:39:23.609Z,31.83
2019-04-29T00:42:09.426Z,31.43
2019-04-29T00:44:36.903Z,30.17
2019-04-29T00:47:04.311Z,34.00
2019-04-29T00:49:31.768Z,30.50
2019-04-29T00:51:59.173Z,35.17
2019-04-29T00:54:26.647Z,40.87
2019-04-29T00:56:54.021Z,34.17
2019-04-29T00:59:21.486Z,39.50
2019-04-29T01:01:48.920Z,38.53
2019-04-29T01:04:16.331Z,39.90
2019-04-29T01:06:43.770Z,31.77
2019-04-29T01:09:11.175Z,34.03
2019-04-29T01:11:38.587Z,30.17
2019-04-29T01:14:06.062Z,32.37
2019-04-29T01:16:33.496Z,33.07
2019-04-29T01:19:03.790Z,34.53
2019-04-29T01:21:28.347Z,34.83
2019-04-29T01:23:55.789Z,31.83
2019-04-29T01:26:41.821Z,28.87
2019-04-29T01:29:09.238Z,30.70
2019-04-29T01:31:36.715Z,29.60
2019-04-29T01:34:04.139Z,30.40
2019-04-29T01:36:37.575Z,31.97
2019-04-29T01:39:04.975Z,31.57
2019-04-29T01:41:35.111Z,30.63
2019-04-29T01:44:02.554Z,28.60
2019-04-29T01:46:29.956Z,31.80
2019-04-29T01:48:58.276Z,30.27
2019-04-29T01:51:25.713Z,31.77
2019-04-29T01:53:53.123Z,29.67
2019-04-29T01:56:20.596Z,28.63
2019-04-29T01:58:48.009Z,26.67
2019-04-29T02:01:15.432Z,26.10
2019-04-29T02:03:42.893Z,30.50
2019-04-29T02:06:10.331Z,39.70
2019-04-29T02:08:37.749Z,37.40
2019-04-29T02:11:05.186Z,38.53
2019-04-29T02:13:32.598Z,37.50
2019-04-29T02:16:00.977Z,37.83
2019-04-29T02:18:28.401Z,46.93
2019-04-29T02:20:55.855Z,42.43
2019-04-29T02:23:38.942Z,40.20
2019-04-29T02:26:06.410Z,42.37
2019-04-29T02:28:33.829Z,43.20
2019-04-29T02:31:01.275Z,43.53
2019-04-29T02:33:28.688Z,44.87
2019-04-29T02:35:56.431Z,49.73
2019-04-29T02:38:29.451Z,46.47
2019-04-29T02:40:59.700Z,50.43
2019-04-29T02:43:33.326Z,48.37
2019-04-29T02:46:00.735Z,49.37
2019-04-29T02:48:31.548Z,54.70
2019-04-29T02:50:55.610Z,46.13
2019-04-29T02:53:23.075Z,41.63
2019-04-29T02:55:50.479Z,50.77
2019-04-29T02:58:17.932Z,35.80
2019-04-29T03:00:45.332Z,37.13
2019-04-29T03:03:12.776Z,35.77
2019-04-29T03:05:42.786Z,34.03
2019-04-29T03:08:10.233Z,35.17
2019-04-29T03:10:37.652Z,37.30
2019-04-29T03:13:05.104Z,38.93
2019-04-29T03:15:32.518Z,33.43
2019-04-29T03:17:59.951Z,43.53
2019-04-29T03:20:27.420Z,34.73
2019-04-29T03:23:06.905Z,37.03
2019-04-29T03:25:34.350Z,39.00
2019-04-29T03:28:01.795Z,36.50
2019-04-29T03:30:29.240Z,42.50
2019-04-29T03:32:56.692Z,39.10
2019-04-29T03:35:24.166Z,41.27
2019-04-29T03:37:51.592Z,52.27
2019-04-29T03:40:18.999Z,39.00
2019-04-29T03:42:46.496Z,39.20
2019-04-29T03:45:13.907Z,42.13
2019-04-29T03:47:41.355Z,38.03
2019-04-29T03:50:08.770Z,35.13
2019-04-29T03:52:36.225Z,35.13
2019-04-29T03:55:03.639Z,31.77
2019-04-29T03:57:31.091Z,30.00
2019-04-29T03:59:58.513Z,31.73
2019-04-29T04:02:37.742Z,41.60
2019-04-29T04:05:05.186Z,37.90
2019-04-29T04:07:50.859Z,45.63
2019-04-29T04:10:18.314Z,46.80
2019-04-29T04:12:45.728Z,54.07
2019-04-29T04:15:13.178Z,45.80
2019-04-29T04:17:43.486Z,56.43
2019-04-29T04:20:10.958Z,59.73
2019-04-29T04:22:48.606Z,50.07
2019-04-29T04:25:15.831Z,51.93
2019-04-29T04:27:43.249Z,45.77
2019-04-29T04:30:10.722Z,53.87
2019-04-29T04:32:38.124Z,59.37
2019-04-29T04:35:08.450Z,45.00
2019-04-29T04:37:35.941Z,45.57
2019-04-29T04:40:03.358Z,44.53
2019-04-29T04:42:30.803Z,49.70
2019-04-29T04:44:58.273Z,53.57
2019-04-29T04:47:25.680Z,45.00
2019-04-29T04:49:53.105Z,38.93
2019-04-29T04:52:20.620Z,45.60
2019-04-29T04:54:48.040Z,42.10
2019-04-29T04:57:15.477Z,39.10
2019-04-29T04:59:42.925Z,36.27
2019-04-29T05:02:10.344Z,34.77
2019-04-29T05:04:37.909Z,30.57
2019-04-29T05:07:05.380Z,34.60
2019-04-29T05:09:32.807Z,32.00
2019-04-29T05:12:00.551Z,35.73
2019-04-29T05:14:27.971Z,31.57
2019-04-29T05:16:55.412Z,34.47
2019-04-29T05:19:22.840Z,29.23
2019-04-29T05:21:50.289Z,31.43
2019-04-29T05:24:17.744Z,36.93
2019-04-29T05:26:45.147Z,77.43
2019-04-29T05:29:12.594Z,30.07
2019-04-29T05:31:40.029Z,42.53
2019-04-29T05:34:07.493Z,39.63
2019-04-29T05:36:40.754Z,43.13
2019-04-29T05:39:11.130Z,38.67
2019-04-29T05:41:38.547Z,34.93
2019-04-29T05:44:06.010Z,41.77
2019-04-29T05:46:36.530Z,41.40
2019-04-29T05:49:07.165Z,52.47
2019-04-29T05:51:31.358Z,49.93
2019-04-29T05:54:10.875Z,57.23
2019-04-29T05:56:38.279Z,40.73
2019-04-29T05:59:08.542Z,78.50
2019-04-29T06:01:33.201Z,55.43
2019-04-29T06:04:00.662Z,133.70
2019-04-29T06:06:28.072Z,95.97
2019-04-29T06:08:55.494Z,55.13
2019-04-29T06:11:24.243Z,129.43
2019-04-29T06:13:51.661Z,52.43
2019-04-29T06:16:21.028Z,95.40
2019-04-29T06:18:46.530Z,168.40
2019-04-29T06:21:14.359Z,45.73
2019-04-29T06:23:41.772Z,105.03
2019-04-29T06:26:09.340Z,71.03
2019-04-29T06:28:36.655Z,154.03
2019-04-29T06:31:04.099Z,67.87
2019-04-29T06:33:31.541Z,47.70
2019-04-29T06:35:58.979Z,107.63
2019-04-29T06:38:26.513Z,80.47
2019-04-29T06:40:53.969Z,141.87
2019-04-29T06:43:24.677Z,79.30
2019-04-29T06:45:48.830Z,59.33
2019-04-29T06:48:16.282Z,167.13
2019-04-29T06:50:43.700Z,60.97
2019-04-29T06:53:11.158Z,62.47
2019-04-29T06:55:38.572Z,144.23
2019-04-29T06:58:06.023Z,60.77
2019-04-29T07:00:33.470Z,66.70
2019-04-29T07:03:01.008Z,59.63
2019-04-29T07:05:28.426Z,68.57
2019-04-29T07:07:55.857Z,66.83
2019-04-29T07:10:27.040Z,47.80
2019-04-29T07:12:50.804Z,49.60
2019-04-29T07:15:18.238Z,28.47
2019-04-29T07:17:45.652Z,37.10
2019-04-29T07:20:13.107Z,27.37
2019-04-29T07:22:40.506Z,30.23
2019-04-29T07:25:07.960Z,24.53
2019-04-29T07:27:43.140Z,24.80
2019-04-29T07:30:06.553Z,21.43
2019-04-29T07:32:32.308Z,24.90
2019-04-29T07:34:57.681Z,30.23
2019-04-29T07:37:25.089Z,31.83
2019-04-29T07:39:52.578Z,22.47
2019-04-29T07:42:20.023Z,24.97
2019-04-29T07:45:05.632Z,25.43
2019-04-29T07:47:33.052Z,22.50
2019-04-29T07:50:00.567Z,24.20
2019-04-29T07:52:27.937Z,23.70
2019-04-29T07:54:56.286Z,26.20
2019-04-29T07:57:22.788Z,23.30
2019-04-29T07:59:50.243Z,22.63
2019-04-29T08:02:17.668Z,24.10
2019-04-29T08:04:45.081Z,22.77
2019-04-29T08:07:12.563Z,21.83
2019-04-29T08:09:44.235Z,23.90
2019-04-29T08:12:07.445Z,27.40
2019-04-29T08:14:34.895Z,22.00
2019-04-29T08:17:02.325Z,26.13
2019-04-29T08:19:31.552Z,22.30
2019-04-29T08:21:57.202Z,24.53
2019-04-29T08:24:24.687Z,26.17
2019-04-29T08:26:52.116Z,21.67
2019-04-29T08:29:19.566Z,21.73
2019-04-29T08:31:47.100Z,21.00
2019-04-29T08:34:14.518Z,21.37
2019-04-29T08:36:41.920Z,24.20
2019-04-29T08:39:09.414Z,25.20
2019-04-29T08:41:36.840Z,23.90
2019-04-29T08:44:16.390Z,24.93
2019-04-29T08:46:44.424Z,33.83
2019-04-29T08:49:11.425Z,21.93
2019-04-29T08:51:35.691Z,24.80
2019-04-29T08:54:03.103Z,23.57
2019-04-29T08:56:30.515Z,24.33
2019-04-29T08:58:57.990Z,21.50
2019-04-29T09:01:29.241Z,20.17
2019-04-29T09:03:53.706Z,22.87
2019-04-29T09:06:20.308Z,21.30
2019-04-29T09:08:56.227Z,20.40
2019-04-29T09:11:15.158Z,21.93
2019-04-29T09:13:42.628Z,19.83
2019-04-29T09:16:10.036Z,17.93
2019-04-29T09:18:37.491Z,17.57
2019-04-29T09:21:04.897Z,16.97
2019-04-29T09:23:34.804Z,19.67
2019-04-29T09:26:05.033Z,17.30
2019-04-29T09:28:32.487Z,18.50
2019-04-29T09:30:59.935Z,16.93
2019-04-29T09:33:27.709Z,14.97
2019-04-29T09:35:55.122Z,17.20
2019-04-29T09:38:22.543Z,12.07
2019-04-29T09:40:54.587Z,12.10
2019-04-29T09:43:21.415Z,15.60
2019-04-29T09:45:58.630Z,14.40
2019-04-29T09:48:21.883Z,16.90
2019-04-29T09:50:49.313Z,17.77
2019-04-29T09:53:16.763Z,16.83
2019-04-29T09:55:44.169Z,14.73
2019-04-29T09:58:11.605Z,24.10
2019-04-29T10:00:41.980Z,14.40
2019-04-29T10:03:09.263Z,17.17
2019-04-29T10:05:36.674Z,16.23
2019-04-29T10:08:04.118Z,19.63
2019-04-29T10:10:31.578Z,19.00
2019-04-29T10:12:58.990Z,18.27
2019-04-29T10:15:44.847Z,16.17
2019-04-29T10:18:14.958Z,16.67
2019-04-29T10:20:42.746Z,21.23
2019-04-29T10:23:10.198Z,22.20
2019-04-29T10:25:37.599Z,19.30
2019-04-29T10:28:05.061Z,20.73
2019-04-29T10:30:32.618Z,19.27
2019-04-29T10:32:59.907Z,20.57
2019-04-29T10:35:27.313Z,18.80
2019-04-29T10:37:54.775Z,20.53
2019-04-29T10:40:22.248Z,20.90
2019-04-29T10:42:49.658Z,21.17
2019-04-29T10:45:17.114Z,23.83
2019-04-29T10:47:47.515Z,24.37
2019-04-29T10:50:17.564Z,20.37
2019-04-29T10:52:44.986Z,16.03
2019-04-29T10:55:12.435Z,17.27
2019-04-29T10:57:39.899Z,12.27
2019-04-29T11:00:21.879Z,12.97
2019-04-29T11:02:49.248Z,12.97
2019-04-29T11:05:26.167Z,14.57
2019-04-29T11:07:53.629Z,14.73
2019-04-29T11:10:30.037Z,15.53
2019-04-29T11:12:57.494Z,13.10
2019-04-29T11:15:28.325Z,14.00
2019-04-29T11:17:58.771Z,13.10
2019-04-29T11:20:21.594Z,13.33
2019-04-29T11:23:09.794Z,12.07
2019-04-29T11:25:51.059Z,12.90
2019-04-29T11:28:16.219Z,12.90
2019-04-29T11:30:40.713Z,12.00
2019-04-29T11:33:22.599Z,12.27
2019-04-29T11:35:50.003Z,13.10
2019-04-29T11:38:17.413Z,12.80
2019-04-29T11:40:44.889Z,13.30
2019-04-29T11:43:15.510Z,13.20
2019-04-29T11:45:40.415Z,13.17
2019-04-29T11:48:07.210Z,12.47
2019-04-29T11:50:34.599Z,13.57
2019-04-29T11:53:02.001Z,12.73
2019-04-29T11:55:29.543Z,11.87
2019-04-29T11:57:59.970Z,11.50
2019-04-29T12:00:27.379Z,12.40
2019-04-29T12:02:54.856Z,13.47
2019-04-29T12:05:44.898Z,12.07
2019-04-29T12:08:16.329Z,12.97
2019-04-29T12:10:39.107Z,12.60
2019-04-29T12:13:03.019Z,12.63
2019-04-29T12:15:33.373Z,10.80
2019-04-29T12:18:12.767Z,10.53
2019-04-29T12:20:40.173Z,11.00
2019-04-29T12:23:11.075Z,12.43
2019-04-29T12:25:36.542Z,10.30
2019-04-29T12:28:12.424Z,10.80
2019-04-29T12:30:34.760Z,10.20
2019-04-29T12:33:03.702Z,9.67
2019-04-29T12:35:51.040Z,10.50
2019-04-29T12:38:13.667Z,9.80
2019-04-29T12:40:45.614Z,9.30
2019-04-29T12:43:17.732Z,10.57
2019-04-29T12:45:47.143Z,9.37
2019-04-29T12:48:24.360Z,9.17
2019-04-29T12:50:42.007Z,10.13
2019-04-29T12:53:09.445Z,9.40
2019-04-29T12:55:45.106Z,10.83
2019-04-29T12:58:04.343Z,11.07
2019-04-29T13:00:31.806Z,11.00
2019-04-29T13:03:17.728Z,10.17
2019-04-29T13:05:57.548Z,10.53
2019-04-29T13:08:12.648Z,10.33
2019-04-29T13:10:42.373Z,11.00
2019-04-29T13:13:07.506Z,10.93
2019-04-29T13:15:37.956Z,9.40
2019-04-29T13:18:12.950Z,10.00
2019-04-29T13:20:32.876Z,11.23
2019-04-29T13:23:16.826Z,13.90
2019-04-29T13:25:29.665Z,15.93
2019-04-29T13:28:03.731Z,15.60
2019-04-29T13:30:26.022Z,14.43
2019-04-29T13:32:53.480Z,14.83
2019-04-29T13:35:20.897Z,15.00
2019-04-29T13:37:48.359Z,16.83
2019-04-29T13:40:15.779Z,16.77
2019-04-29T13:42:48.508Z,16.87
2019-04-29T13:45:13.331Z,16.70
2019-04-29T13:47:50.418Z,15.40
2019-04-29T13:50:20.150Z,15.37
2019-04-29T13:52:42.220Z,15.70
2019-04-29T13:55:17.837Z,15.83
2019-04-29T13:57:37.466Z,12.93
2019-04-29T14:00:13.509Z,14.40
2019-04-29T14:02:58.363Z,14.80
2019-04-29T14:05:16.977Z,12.80
2019-04-29T14:07:44.394Z,12.47
2019-04-29T14:10:14.828Z,13.73
2019-04-29T14:12:48.413Z,14.17
2019-04-29T14:15:06.737Z,13.13
2019-04-29T14:17:35.617Z,11.87
2019-04-29T14:20:01.587Z,12.00
2019-04-29T14:22:28.984Z,11.50
2019-04-29T14:24:56.427Z,12.33
2019-04-29T14:27:25.468Z,11.63
2019-04-29T14:29:51.668Z,13.73
2019-04-29T14:32:18.695Z,13.03
2019-04-29T14:35:07.276Z,13.13
2019-04-29T14:37:31.573Z,12.47
2019-04-29T14:40:02.872Z,12.50
2019-04-29T14:42:32.406Z,11.73
2019-04-29T14:44:59.855Z,10.93
2019-04-29T14:47:27.272Z,10.03
2019-04-29T14:49:57.655Z,9.63
2019-04-29T14:52:25.075Z,11.67
2019-04-29T14:54:52.523Z,9.90
2019-04-29T14:57:19.973Z,10.43
2019-04-29T14:59:47.580Z,9.40
2019-04-29T15:02:17.034Z,17.93
2019-04-29T15:04:42.307Z,9.90
2019-04-29T15:07:09.711Z,10.13
2019-04-29T15:09:46.395Z,9.57
2019-04-29T15:12:04.660Z,10.83
2019-04-29T15:14:34.777Z,9.97
2019-04-29T15:17:02.185Z,13.33
2019-04-29T15:19:49.250Z,10.13
2019-04-29T15:22:15.284Z,11.10
2019-04-29T15:24:42.701Z,11.60
2019-04-29T15:27:10.176Z,12.63
2019-04-29T15:29:37.578Z,11.77
2019-04-29T15:32:05.004Z,11.80
2019-04-29T15:34:32.482Z,12.33
2019-04-29T15:36:59.903Z,12.03
2019-04-29T15:39:27.381Z,12.10
2019-04-29T15:41:55.340Z,12.13
2019-04-29T15:44:23.045Z,13.13
2019-04-29T15:46:49.687Z,12.10
2019-04-29T15:49:20.039Z,13.00
2019-04-29T15:51:49.232Z,12.80
2019-04-29T15:54:14.277Z,12.87
2019-04-29T15:56:40.547Z,13.20
2019-04-29T15:59:09.590Z,11.80
2019-04-29T16:01:35.378Z,11.20
2019-04-29T16:04:02.752Z,11.87
2019-04-29T16:06:48.530Z,10.90
2019-04-29T16:09:18.687Z,11.13
2019-04-29T16:11:48.699Z,11.23
2019-04-29T16:14:18.666Z,11.03
2019-04-29T16:16:46.133Z,11.70
2019-04-29T16:19:13.550Z,12.23
2019-04-29T16:21:41.791Z,11.33
2019-04-29T16:24:25.135Z,12.07
2019-04-29T16:26:35.894Z,13.90
2019-04-29T16:29:12.400Z,14.03
2019-04-29T16:31:30.817Z,14.67
2019-04-29T16:33:58.260Z,13.23
2019-04-29T16:36:25.685Z,13.50
2019-04-29T16:38:53.523Z,14.53
2019-04-29T16:41:23.375Z,13.63
2019-04-29T16:43:50.831Z,14.90
2019-04-29T16:48:48.194Z,14.90
2019-04-29T16:51:16.729Z,15.93
2019-04-29T16:53:43.066Z,14.40
2019-04-29T16:56:16.151Z,16.70
2019-04-29T16:58:37.938Z,14.80
2019-04-29T17:01:05.386Z,14.93
2019-04-29T17:03:32.842Z,15.25
2019-04-29T17:06:00.261Z,15.23
2019-04-29T17:08:27.717Z,14.70
2019-04-29T17:10:55.137Z,14.90
2019-04-29T17:13:24.013Z,14.97
2019-04-29T17:15:52.146Z,16.67
2019-04-29T17:18:17.461Z,17.07
2019-04-29T17:20:44.901Z,17.37
2019-04-29T17:23:12.339Z,19.47
2019-04-29T17:25:39.796Z,19.23
2019-04-29T17:28:12.045Z,23.10
2019-04-29T17:30:48.520Z,21.97
2019-04-29T17:33:26.369Z,22.10
2019-04-29T17:35:18.629Z,15.30
2019-04-29T17:35:47.074Z,20.23
2019-04-29T17:38:09.178Z,21.90
2019-04-29T17:40:36.590Z,21.73
2019-04-29T17:43:13.077Z,21.17
2019-04-29T17:45:58.688Z,20.13
2019-04-29T17:48:34.909Z,19.53
2019-04-29T17:51:03.312Z,19.77
2019-04-29T17:53:30.640Z,18.50
2019-04-29T17:56:00.890Z,20.10
2019-04-29T17:58:31.216Z,18.63
2019-04-29T18:01:07.358Z,19.43
2019-04-29T18:03:53.159Z,18.60
2019-04-29T18:06:24.372Z,18.67
2019-04-29T18:08:48.026Z,18.77
2019-04-29T18:11:15.444Z,18.90
2019-04-29T18:13:44.170Z,18.43
2019-04-29T18:16:18.083Z,17.83
2019-04-29T18:18:46.264Z,20.13
2019-04-29T18:21:11.269Z,17.43
2019-04-29T18:23:41.487Z,16.40
2019-04-29T18:26:08.915Z,17.63
2019-04-29T18:28:37.410Z,17.77
2019-04-29T18:31:03.795Z,16.80
2019-04-29T18:33:31.203Z,15.43
2019-04-29T18:36:04.473Z,15.80
2019-04-29T18:38:26.459Z,16.13
2019-04-29T18:40:53.529Z,15.33
2019-04-29T18:43:23.135Z,15.60
2019-04-29T18:45:56.153Z,15.70
2019-04-29T18:48:18.942Z,17.53
2019-04-29T18:50:43.273Z,19.73
2019-04-29T18:53:10.742Z,18.47
2019-04-29T18:55:38.157Z,18.17
2019-04-29T18:58:05.852Z,19.43
2019-04-29T19:00:34.757Z,20.53
2019-04-29T19:03:01.198Z,20.03
2019-04-29T19:05:32.304Z,17.93
2019-04-29T19:08:11.204Z,20.27
2019-04-29T19:10:32.925Z,17.83
2019-04-29T19:12:59.996Z,19.27
2019-04-29T19:15:20.538Z,19.77
2019-04-29T19:17:58.788Z,19.87
2019-04-29T19:20:18.366Z,20.23
2019-04-29T19:22:44.039Z,20.77
2019-04-29T19:25:11.708Z,20.13
2019-04-29T19:27:39.997Z,18.67
2019-04-29T19:30:05.411Z,20.77
2019-04-29T19:32:32.666Z,19.73
2019-04-29T19:35:00.084Z,18.30
2019-04-29T19:37:32.324Z,19.10
2019-04-29T19:39:57.093Z,18.37
2019-04-29T19:42:29.029Z,17.67
2019-04-29T19:44:49.947Z,18.90
2019-04-29T19:47:17.398Z,17.53
2019-04-29T19:49:45.874Z,16.33
2019-04-29T19:52:12.244Z,17.60
2019-04-29T19:54:39.705Z,18.10
2019-04-29T19:57:07.638Z,14.83
2019-04-29T19:59:36.358Z,16.10
2019-04-29T20:02:06.962Z,15.37
2019-04-29T20:04:29.717Z,16.17
2019-04-29T20:07:03.605Z,14.80
2019-04-29T20:09:27.571Z,14.57
2019-04-29T20:11:52.040Z,14.63
2019-04-29T20:14:26.253Z,15.47
2019-04-29T20:16:57.332Z,15.43
2019-04-29T20:19:35.952Z,15.73
2019-04-29T20:22:07.485Z,15.10
2019-04-29T20:24:30.664Z,15.27
2019-04-29T20:26:57.972Z,15.80
2019-04-29T20:29:27.168Z,14.30
2019-04-29T20:31:54.898Z,14.47
2019-04-29T20:34:24.320Z,18.10
2019-04-29T20:36:47.795Z,14.23
2019-04-29T20:39:19.977Z,13.20
2019-04-29T20:41:44.833Z,14.63
2019-04-29T20:44:10.091Z,14.27
2019-04-29T20:46:44.983Z,15.33
2019-04-29T20:49:05.835Z,14.00
2019-04-29T20:51:47.917Z,15.47
2019-04-29T20:54:02.375Z,16.20
2019-04-29T20:56:34.781Z,17.87
2019-04-29T20:58:57.237Z,15.37
2019-04-29T21:01:27.224Z,15.43
2019-04-29T21:03:56.592Z,18.53
2019-04-29T21:06:22.012Z,18.70
2019-04-29T21:08:50.980Z,16.43
2019-04-29T21:11:21.084Z,17.93
2019-04-29T21:13:48.880Z,19.70
2019-04-29T21:16:15.174Z,18.17
2019-04-29T21:18:45.477Z,17.17
2019-04-29T21:21:09.934Z,15.87
2019-04-29T21:23:37.391Z,21.07
2019-04-29T21:26:08.597Z,17.00
2019-04-29T21:28:38.094Z,17.37
2019-04-29T21:30:59.728Z,20.20
2019-04-29T21:33:27.149Z,18.03
2019-04-29T21:35:58.111Z,19.60
2019-04-29T21:38:35.262Z,16.00
2019-04-29T21:41:00.906Z,16.67
2019-04-29T21:43:37.381Z,16.37
2019-04-29T21:46:05.735Z,16.47
2019-04-29T21:48:33.670Z,16.60
2019-04-29T21:50:59.709Z,16.83
2019-04-29T21:53:27.113Z,13.53
2019-04-29T21:55:55.449Z,16.67
2019-04-29T21:58:21.970Z,14.83
2019-04-29T22:00:49.439Z,17.30
2019-04-29T22:03:19.710Z,16.70
2019-04-29T22:05:45.111Z,17.50
2019-04-29T22:08:11.793Z,14.60
2019-04-29T22:10:39.208Z,17.13
2019-04-29T22:13:06.645Z,17.27
2019-04-29T22:15:38.988Z,19.53
2019-04-29T22:18:01.812Z,17.60
2019-04-29T22:20:28.907Z,15.73
2019-04-29T22:22:56.391Z,18.93
2019-04-29T22:25:25.606Z,18.13
2019-04-29T22:27:51.263Z,18.07
2019-04-29T22:30:18.778Z,18.87
2019-04-29T22:32:47.164Z,18.93
2019-04-29T22:35:13.551Z,18.57
2019-04-29T22:37:41.001Z,18.93
2019-04-29T22:40:08.414Z,20.50
2019-04-29T22:42:41.902Z,20.90
2019-04-29T22:45:09.315Z,20.57
2019-04-29T22:47:36.762Z,18.47
2019-04-29T22:50:04.565Z,20.30
2019-04-29T22:52:31.614Z,21.23
2019-04-29T22:55:01.554Z,22.33
2019-04-29T22:57:30.118Z,22.63
2019-04-29T22:59:57.058Z,18.90
2019-04-29T23:02:25.080Z,20.73
2019-04-29T23:04:53.693Z,27.20
2019-04-29T23:07:17.702Z,24.47
2019-04-29T23:09:46.280Z,24.40
2019-04-29T23:12:17.028Z,21.70
2019-04-29T23:14:40.238Z,22.87
2019-04-29T23:17:12.079Z,22.57
2019-04-29T23:19:33.366Z,24.00
2019-04-29T23:22:03.572Z,23.23
2019-04-29T23:24:36.913Z,22.77
2019-04-29T23:27:06.077Z,29.10
2019-04-29T23:29:31.773Z,23.90
2019-04-29T23:31:59.727Z,23.63
2019-04-29T23:34:29.129Z,23.90
2019-04-29T23:36:54.108Z,22.70
2019-04-29T23:39:21.532Z,23.13
2019-04-29T23:41:48.980Z,24.83
2019-04-29T23:44:16.399Z,21.37
2019-04-29T23:46:43.853Z,20.80
2019-04-29T23:49:11.272Z,22.90
2019-04-29T23:51:38.708Z,21.63
2019-04-29T23:54:07.997Z,23.13
2019-04-29T23:56:52.006Z,21.07
2019-04-29T23:59:19.424Z,22.30
